Time;durP1;ratioP1;P1;durP2;ratioP2;P2;SDS_P1;SDS_P2;PMS_P1;PMS_P2;Temp;Humidity;BMP_temperature;BMP_pressure;BME280_temperature;BME280_humidity;BME280_pressure;Samples;Min_cycle;Max_cycle;Signal;HPM_P1;HPM_P2
2022/10/11 04:22:50;;;;;;;21.27;8.32;;;;;;;13.70;100.00;100867.38;5090765;28;20393;-62
2022/10/11 04:25:15;;;;;;;20.55;8.95;;;;;;;13.62;100.00;100874.59;5090716;28;20044;-61
2022/10/11 04:27:40;;;;;;;24.52;9.23;;;;;;;13.71;100.00;100884.28;5090809;28;20463;-62
2022/10/11 04:30:07;;;;;;;26.33;8.65;;;;;;;13.64;100.00;100880.63;5090135;28;20044;-62
2022/10/11 04:32:32;;;;;;;23.40;10.15;;;;;;;13.67;100.00;100875.75;5089094;28;20123;-63
2022/10/11 04:34:58;;;;;;;23.67;9.23;;;;;;;13.72;100.00;100878.72;5088996;28;20032;-62
2022/10/11 04:37:23;;;;;;;20.92;9.70;;;;;;;13.58;100.00;100882.19;5088809;28;20461;-61
2022/10/11 04:39:48;;;;;;;25.00;9.98;;;;;;;13.58;100.00;100884.84;5089473;28;20521;-62
2022/10/11 04:42:15;;;;;;;20.38;9.27;;;;;;;13.65;100.00;100893.00;5087291;28;20519;-61
2022/10/11 04:44:40;;;;;;;24.77;9.10;;;;;;;13.53;100.00;100889.91;5088729;28;20119;-58
2022/10/11 04:47:05;;;;;;;23.55;10.20;;;;;;;13.51;100.00;100875.88;5088725;28;20119;-59
2022/10/11 04:49:31;;;;;;;20.40;9.57;;;;;;;13.56;100.00;100884.19;5088624;28;20047;-61
2022/10/11 04:51:56;;;;;;;21.83;9.88;;;;;;;13.57;100.00;100891.22;5088289;28;20044;-59
2022/10/11 04:54:22;;;;;;;18.60;8.98;;;;;;;13.52;100.00;100894.44;5088385;28;20408;-61
2022/10/11 04:56:47;;;;;;;20.40;8.88;;;;;;;13.53;100.00;100903.28;5087987;28;20126;-61
2022/10/11 04:59:12;;;;;;;19.23;8.82;;;;;;;13.48;100.00;100903.81;5088298;28;20119;-60
2022/10/11 05:01:38;;;;;;;22.45;8.13;;;;;;;13.44;100.00;100897.16;5088107;28;20338;-59
2022/10/11 05:04:03;;;;;;;19.67;8.18;;;;;;;13.46;100.00;100916.53;5088365;28;20048;-61
2022/10/11 05:06:29;;;;;;;27.23;9.85;;;;;;;13.41;100.00;100910.88;5088328;28;20032;-58
2022/10/11 05:08:54;;;;;;;17.85;8.70;;;;;;;13.25;100.00;100903.78;5088277;28;20040;-61
2022/10/11 05:11:19;;;;;;;21.30;9.60;;;;;;;13.39;100.00;100914.75;5087832;28;20456;-61
2022/10/11 05:13:45;;;;;;;19.27;9.35;;;;;;;13.35;100.00;100922.28;5088187;28;20511;-59
2022/10/11 05:16:12;;;;;;;23.65;10.35;;;;;;;13.32;100.00;100928.00;5088058;28;20115;-59
2022/10/11 05:18:38;;;;;;;23.70;10.17;;;;;;;13.36;100.00;100926.59;5088111;28;20146;-63
2022/10/11 05:21:34;;;;;;;27.13;10.48;;;;;;;13.36;100.00;100931.97;5087680;28;20286;-63
2022/10/11 05:23:59;;;;;;;20.50;9.35;;;;;;;13.44;100.00;100933.78;5084934;28;20044;-59
2022/10/11 05:26:31;;;;;;;23.63;9.70;;;;;;;13.40;100.00;100935.13;5088107;28;20065;-60
2022/10/11 05:28:56;;;;;;;24.08;10.60;;;;;;;13.39;100.00;100942.34;5087973;28;20055;-60
2022/10/11 05:31:22;;;;;;;23.52;9.40;;;;;;;13.38;100.00;100942.50;5087556;28;20485;-59
2022/10/11 05:33:48;;;;;;;19.17;8.88;;;;;;;13.34;100.00;100952.72;5076508;28;20131;-59
2022/10/11 05:36:13;;;;;;;20.27;8.95;;;;;;;13.39;100.00;100958.38;5074202;28;20075;-61
2022/10/11 05:38:39;;;;;;;22.92;10.70;;;;;;;13.34;100.00;100955.41;5074150;28;20041;-60
2022/10/11 05:41:05;;;;;;;29.95;11.20;;;;;;;13.37;100.00;100954.22;5073898;28;20049;-63
2022/10/11 05:43:31;;;;;;;28.77;10.48;;;;;;;13.27;100.00;100959.78;5075234;28;20032;-63
2022/10/11 05:45:57;;;;;;;28.77;10.75;;;;;;;13.26;100.00;100966.13;5073946;28;20048;-63
2022/10/11 05:48:27;;;;;;;21.92;9.32;;;;;;;13.26;100.00;100969.66;5074724;28;20037;-60
2022/10/11 05:51:01;;;;;;;22.88;9.23;;;;;;;13.29;100.00;100971.13;5073669;28;20086;-62
2022/10/11 05:53:27;;;;;;;22.40;10.05;;;;;;;13.36;100.00;100980.13;5073805;28;20114;-62
2022/10/11 05:55:53;;;;;;;16.70;9.30;;;;;;;13.26;100.00;100979.50;5073714;28;20048;-64
2022/10/11 05:58:19;;;;;;;20.33;9.88;;;;;;;13.32;100.00;100984.19;5073701;28;20500;-63
2022/10/11 06:00:44;;;;;;;21.40;8.90;;;;;;;13.30;100.00;100983.50;5073657;28;20036;-62
2022/10/11 06:03:11;;;;;;;20.77;8.55;;;;;;;13.29;100.00;100985.34;5073736;28;20068;-60
2022/10/11 06:05:36;;;;;;;17.58;7.72;;;;;;;13.32;100.00;100994.88;5073859;28;20110;-61
2022/10/11 06:08:04;;;;;;;16.88;7.10;;;;;;;13.27;100.00;100991.88;5072346;28;20665;-65
2022/10/11 06:10:30;;;;;;;18.50;7.70;;;;;;;13.05;100.00;100998.78;5073207;28;20058;-64
2022/10/11 06:12:55;;;;;;;16.42;7.03;;;;;;;13.13;100.00;100998.75;5073571;28;20037;-65
2022/10/11 06:15:21;;;;;;;17.15;7.30;;;;;;;13.17;100.00;101000.09;5073421;28;20037;-64
2022/10/11 06:17:46;;;;;;;19.88;7.65;;;;;;;13.15;100.00;101003.91;5072102;28;20040;-65
2022/10/11 06:20:12;;;;;;;13.60;6.97;;;;;;;13.13;100.00;101012.13;5072998;28;20073;-61
2022/10/11 06:22:37;;;;;;;14.10;6.20;;;;;;;13.13;100.00;101006.78;5073727;28;20033;-63
2022/10/11 06:25:04;;;;;;;16.15;5.95;;;;;;;13.11;100.00;101003.44;5073523;28;20028;-62
2022/10/11 06:27:29;;;;;;;16.85;5.35;;;;;;;13.15;100.00;101006.59;5073204;28;20036;-63
2022/10/11 06:29:55;;;;;;;13.15;5.80;;;;;;;13.16;100.00;101013.59;5071891;28;20044;-64
2022/10/11 06:32:20;;;;;;;11.50;5.80;;;;;;;13.14;100.00;101015.63;5072951;28;20049;-62
2022/10/11 06:34:46;;;;;;;13.38;6.57;;;;;;;13.10;100.00;101014.28;5073182;28;20083;-63
2022/10/11 06:37:11;;;;;;;10.27;5.10;;;;;;;13.10;100.00;101022.31;5071923;28;20154;-62
2022/10/11 06:39:37;;;;;;;11.52;5.65;;;;;;;13.02;100.00;101025.84;5072949;28;20068;-63
2022/10/11 06:42:03;;;;;;;10.75;4.60;;;;;;;13.01;100.00;101029.53;5072858;28;20040;-63
2022/10/11 06:44:28;;;;;;;10.45;4.72;;;;;;;13.11;100.00;101026.69;5071950;28;20041;-63
2022/10/11 06:46:54;;;;;;;11.63;3.88;;;;;;;13.04;100.00;101023.84;5072839;28;20070;-63
2022/10/11 06:49:19;;;;;;;10.63;4.38;;;;;;;13.05;100.00;101041.56;5072926;28;20046;-63
2022/10/11 06:51:45;;;;;;;4.85;3.22;;;;;;;12.98;100.00;101040.59;5072299;28;20036;-64
2022/10/11 06:54:10;;;;;;;9.27;4.00;;;;;;;13.02;99.40;101037.38;5072794;28;20469;-63
2022/10/11 06:56:35;;;;;;;9.48;4.05;;;;;;;13.05;99.61;101041.56;5072571;28;20049;-62
2022/10/11 06:59:02;;;;;;;7.35;3.30;;;;;;;13.08;99.82;101043.91;5072960;28;20063;-64
2022/10/11 07:01:28;;;;;;;5.25;3.08;;;;;;;13.11;98.18;101043.56;5072366;28;20481;-63
2022/10/11 07:03:56;;;;;;;6.88;2.72;;;;;;;13.13;96.36;101043.38;5072751;28;20040;-64
2022/10/11 07:06:26;;;;;;;7.15;2.20;;;;;;;13.06;95.14;101053.09;5072408;28;20040;-64
2022/10/11 07:08:52;;;;;;;5.63;2.72;;;;;;;12.93;94.93;101049.09;5072894;28;20048;-62
2022/10/11 07:11:20;;;;;;;3.88;2.22;;;;;;;13.08;94.54;101053.75;5072087;28;20033;-64
2022/10/11 07:13:54;;;;;;;9.20;2.35;;;;;;;12.90;92.35;101046.75;5072411;28;20037;-64
2022/10/11 07:16:21;;;;;;;3.25;1.92;;;;;;;12.99;92.42;101061.81;5072420;28;20484;-63
2022/10/11 07:18:50;;;;;;;6.10;2.55;;;;;;;13.10;92.22;101068.63;5072189;28;20033;-63
2022/10/11 07:21:16;;;;;;;3.88;2.00;;;;;;;13.14;91.88;101064.59;5072290;28;20090;-64
2022/10/11 07:23:41;;;;;;;3.97;1.77;;;;;;;13.09;90.80;101064.28;5072250;28;20040;-63
2022/10/11 07:26:08;;;;;;;2.65;1.73;;;;;;;13.08;89.84;101065.28;5072365;28;20370;-64
2022/10/11 07:28:35;;;;;;;6.55;2.20;;;;;;;12.93;89.57;101070.50;5072173;28;20382;-64
2022/10/11 07:31:21;;;;;;;3.20;1.58;;;;;;;13.04;89.20;101074.69;5071706;28;20036;-63
2022/10/11 07:33:47;;;;;;;3.10;1.75;;;;;;;12.95;89.15;101070.31;5072066;28;20032;-63
2022/10/11 07:36:13;;;;;;;1.73;1.27;;;;;;;12.99;88.85;101083.19;5071833;28;20520;-62
2022/10/11 07:38:40;;;;;;;6.38;1.60;;;;;;;13.13;87.78;101080.84;5071807;28;20728;-63
2022/10/11 07:41:07;;;;;;;4.35;1.75;;;;;;;13.12;87.22;101080.00;5071659;28;20083;-63
2022/10/11 07:43:33;;;;;;;4.53;1.80;;;;;;;13.03;86.70;101070.31;5071820;28;20047;-63
2022/10/11 07:46:02;;;;;;;2.30;1.50;;;;;;;12.95;87.57;101083.69;5071752;28;20190;-63
2022/10/11 07:48:29;;;;;;;5.13;1.77;;;;;;;13.02;87.40;101084.69;5071901;28;20029;-64
2022/10/11 07:51:02;;;;;;;3.10;1.80;;;;;;;13.17;88.28;101083.00;5071541;28;20036;-64
2022/10/11 07:53:28;;;;;;;2.53;1.33;;;;;;;13.31;86.91;101094.88;5071726;28;20352;-64
2022/10/11 07:55:53;;;;;;;6.03;1.75;;;;;;;13.25;85.50;101088.38;5071529;28;20032;-64
2022/10/11 07:58:19;;;;;;;5.60;1.73;;;;;;;13.32;85.46;101088.53;5072122;28;20037;-64
2022/10/11 08:00:44;;;;;;;4.70;1.38;;;;;;;13.36;85.94;101097.88;5071676;28;20545;-64
2022/10/11 08:03:10;;;;;;;4.80;1.70;;;;;;;13.36;83.58;101091.69;5072532;28;20092;-63
2022/10/11 08:05:38;;;;;;;4.60;1.35;;;;;;;13.29;83.87;101097.72;5071813;28;20500;-63
2022/10/11 08:08:03;;;;;;;2.85;1.73;;;;;;;13.33;84.27;101092.03;5071454;28;20505;-65
2022/10/11 08:10:29;;;;;;;5.53;1.80;;;;;;;13.24;83.24;101101.94;5071022;28;20048;-63
2022/10/11 08:12:54;;;;;;;7.38;2.08;;;;;;;13.19;84.34;101097.03;5071346;28;20123;-65
2022/10/11 08:15:20;;;;;;;5.18;2.08;;;;;;;13.21;83.91;101100.41;5071242;28;20086;-66
2022/10/11 08:17:46;;;;;;;10.70;2.05;;;;;;;13.26;83.92;101102.59;5071535;28;20044;-65
2022/10/11 08:20:12;;;;;;;6.15;1.95;;;;;;;13.20;83.85;101111.25;5071110;28;20032;-66
2022/10/11 08:22:38;;;;;;;3.22;1.63;;;;;;;13.12;84.39;101108.59;5071151;28;20613;-64
2022/10/11 08:25:04;;;;;;;3.88;1.85;;;;;;;13.18;83.73;101111.44;5071417;28;20115;-64
2022/10/11 08:27:29;;;;;;;6.40;1.80;;;;;;;13.04;84.56;101115.63;5070953;28;20124;-65
2022/10/11 08:29:54;;;;;;;9.98;1.73;;;;;;;13.15;83.91;101113.59;5071189;28;20040;-64
2022/10/11 08:32:20;;;;;;;2.65;1.98;;;;;;;13.20;83.87;101114.78;5070864;28;20492;-66
2022/10/11 08:34:45;;;;;;;3.30;1.60;;;;;;;13.23;83.32;101109.09;5071253;28;20068;-63
2022/10/11 08:37:11;;;;;;;5.30;2.05;;;;;;;13.26;82.80;101111.44;5071069;28;20112;-64
2022/10/11 08:39:36;;;;;;;5.32;1.67;;;;;;;13.27;83.32;101115.78;5071261;28;20067;-65
2022/10/11 08:42:06;;;;;;;5.18;2.15;;;;;;;13.16;83.52;101116.09;5070807;28;20040;-63
2022/10/11 08:44:35;;;;;;;3.83;1.40;;;;;;;13.06;83.48;101112.78;5071189;28;20040;-65
2022/10/11 08:47:11;;;;;;;4.45;1.88;;;;;;;12.99;83.69;101111.78;5071227;28;20486;-65
2022/10/11 08:49:38;;;;;;;5.78;1.58;;;;;;;12.97;84.21;101119.13;5071031;28;20037;-65
2022/10/11 08:52:12;;;;;;;3.55;1.48;;;;;;;12.91;84.08;101114.44;5069349;28;20090;-65
2022/10/11 08:54:47;;;;;;;2.80;1.58;;;;;;;12.97;84.74;101109.25;5071302;28;20492;-66
2022/10/11 08:57:20;;;;;;;4.22;1.52;;;;;;;12.98;85.12;101113.63;5071117;28;20044;-65
2022/10/11 09:00:07;;;;;;;3.10;1.40;;;;;;;12.97;84.61;101117.28;5069684;28;20409;-65
2022/10/11 09:02:33;;;;;;;2.88;1.25;;;;;;;12.94;84.24;101116.78;5070850;28;20040;-66
2022/10/11 09:05:00;;;;;;;4.20;1.73;;;;;;;12.69;85.09;101106.09;5070856;28;20032;-65
2022/10/11 09:07:39;;;;;;;4.30;1.40;;;;;;;12.87;85.12;101115.78;5070911;28;20166;-65
2022/10/11 09:10:52;;;;;;;3.58;1.60;;;;;;;12.51;86.07;101124.09;5074729;28;20639;-65
2022/10/11 09:13:43;;;;;;;3.63;1.75;;;;;;;12.56;86.46;101116.44;5074508;28;20470;-65
2022/10/11 09:16:14;;;;;;;4.30;1.55;;;;;;;12.65;86.27;101115.44;5074573;28;20478;-65
2022/10/11 09:19:14;;;;;;;7.20;2.08;;;;;;;12.79;86.47;101113.13;5074536;28;20369;-66
2022/10/11 09:21:51;;;;;;;5.30;1.60;;;;;;;12.89;85.95;101105.75;5074300;28;20386;-65
2022/10/11 09:24:52;;;;;;;8.30;1.77;;;;;;;12.98;86.06;101110.13;5074485;28;20131;-63
2022/10/11 09:27:22;;;;;;;4.85;2.35;;;;;;;12.92;86.24;101105.44;5074379;28;20037;-65
2022/10/11 09:29:51;;;;;;;4.22;2.13;;;;;;;12.90;85.78;101110.94;5074202;28;20036;-68
2022/10/11 09:32:21;;;;;;;4.03;1.75;;;;;;;12.90;86.99;101112.78;5073853;28;20036;-53
2022/10/11 09:35:07;;;;;;;5.65;2.08;;;;;;;13.01;87.57;101104.41;5074203;28;20405;-53
2022/10/11 09:37:41;;;;;;;6.57;2.33;;;;;;;13.17;86.38;101101.75;5074128;28;20037;-64
2022/10/11 09:40:09;;;;;;;5.18;1.55;;;;;;;13.25;85.48;101100.91;5073948;28;20390;-65
2022/10/11 09:42:35;;;;;;;7.70;2.00;;;;;;;13.37;85.22;101101.41;5073854;28;20039;-65
2022/10/11 09:45:01;;;;;;;10.70;2.28;;;;;;;13.25;85.59;101093.72;5073990;28;20037;-66
2022/10/11 09:47:29;;;;;;;7.45;1.77;;;;;;;13.40;85.59;101093.84;5073858;28;20040;-66
2022/10/11 09:50:11;;;;;;;7.65;2.25;;;;;;;13.57;85.41;101092.81;5073698;28;20478;-66
2022/10/11 09:52:50;;;;;;;6.90;2.30;;;;;;;13.57;85.13;101100.00;5074014;28;20032;-67
2022/10/11 09:55:42;;;;;;;6.38;2.00;;;;;;;13.65;84.75;101101.81;5073820;28;20042;-66
2022/10/11 09:58:29;;;;;;;6.72;2.38;;;;;;;13.73;84.99;101096.44;5067899;28;20044;-66
2022/10/11 10:01:04;;;;;;;6.85;2.25;;;;;;;13.68;84.79;101104.97;5073460;28;20033;-66
2022/10/11 10:03:42;;;;;;;5.72;2.20;;;;;;;13.73;84.81;101094.59;5073628;28;20024;-66
2022/10/11 10:06:23;;;;;;;6.80;2.35;;;;;;;13.67;84.97;101099.78;5073597;28;20067;-66
2022/10/11 10:08:49;;;;;;;4.30;2.13;;;;;;;13.84;84.96;101099.56;5072417;28;20442;-66
2022/10/11 10:11:16;;;;;;;6.03;2.28;;;;;;;13.98;84.01;101102.53;5073061;28;20474;-66
2022/10/11 10:13:41;;;;;;;7.13;2.25;;;;;;;14.11;83.55;101097.44;5073430;28;20462;-66
2022/10/11 10:16:17;;;;;;;5.38;1.90;;;;;;;14.19;83.31;101097.38;5073382;28;20039;-65
2022/10/11 10:18:50;;;;;;;7.45;2.33;;;;;;;14.26;83.27;101101.03;5073224;28;20048;-64
2022/10/11 10:21:25;;;;;;;4.78;2.97;;;;;;;14.22;84.24;101102.41;5073064;28;20508;-65
2022/10/11 10:23:54;;;;;;;7.20;2.00;;;;;;;14.16;84.37;101095.06;5073572;28;20085;-65
2022/10/11 10:26:22;;;;;;;5.03;2.58;;;;;;;14.30;83.08;101102.34;5073162;28;20108;-65
2022/10/11 10:29:09;;;;;;;12.23;5.22;;;;;;;14.44;83.49;101099.91;5073023;28;20032;-65
2022/10/11 10:31:50;;;;;;;3.85;2.28;;;;;;;14.38;84.12;101091.56;5072635;28;20071;-65
2022/10/11 10:34:38;;;;;;;9.65;4.82;;;;;;;14.55;83.08;101095.00;5072707;28;20040;-67
2022/10/11 10:37:16;;;;;;;7.10;3.17;;;;;;;14.63;83.52;101092.25;5072910;28;20028;-63
2022/10/11 10:40:17;;;;;;;10.20;2.67;;;;;;;14.56;83.43;101091.31;5072994;28;20048;-65
2022/10/11 10:42:43;;;;;;;5.18;2.25;;;;;;;14.74;83.66;101088.34;5060109;28;20728;-67
2022/10/11 10:45:16;;;;;;;6.28;2.65;;;;;;;14.82;82.83;101093.63;5072849;28;20036;-64
2022/10/11 10:48:20;;;;;;;5.38;2.35;;;;;;;14.94;82.37;101094.03;5072771;28;20119;-64
2022/10/11 10:50:57;;;;;;;5.53;2.45;;;;;;;14.97;81.75;101084.78;5072313;28;20051;-66
2022/10/11 10:53:31;;;;;;;6.80;2.90;;;;;;;15.14;81.15;101089.81;5072671;28;20044;-64
2022/10/11 10:56:35;;;;;;;4.47;3.00;;;;;;;15.26;81.01;101092.91;5071528;28;20520;-64
2022/10/11 10:59:13;;;;;;;3.95;2.25;;;;;;;15.17;81.77;101093.97;5072717;28;20524;-66
2022/10/11 11:01:54;;;;;;;7.15;2.70;;;;;;;15.33;81.57;101083.09;5071066;28;20128;-65
2022/10/11 11:04:22;;;;;;;11.98;3.03;;;;;;;15.52;80.21;101088.91;5072699;28;20576;-65
2022/10/11 11:06:57;;;;;;;5.45;2.58;;;;;;;15.66;79.37;101086.28;5072609;28;20044;-64
2022/10/11 11:09:44;;;;;;;7.75;2.53;;;;;;;15.69;79.94;101087.75;5072399;28;20115;-65
2022/10/11 11:12:30;;;;;;;7.57;2.67;;;;;;;15.87;78.96;101085.50;5071945;28;20043;-66
2022/10/11 11:15:08;;;;;;;3.03;2.17;;;;;;;15.70;78.76;101078.66;5072351;28;20097;-65
2022/10/11 11:17:39;;;;;;;4.82;2.58;;;;;;;15.86;80.58;101083.00;5072178;28;20040;-64
2022/10/11 11:20:15;;;;;;;4.00;2.33;;;;;;;15.98;79.02;101076.97;5072016;28;20051;-65
2022/10/11 11:23:12;;;;;;;5.38;2.42;;;;;;;16.09;80.24;101072.94;5071881;28;20032;-65
2022/10/11 11:25:41;;;;;;;;;;;;;;;16.02;79.38;101074.72;5072507;28;20037;-65
2022/10/11 11:28:25;;;;;;;4.28;2.17;;;;;;;15.99;77.90;101072.44;5072077;28;20003;-65
2022/10/11 11:31:02;;;;;;;6.22;2.58;;;;;;;16.12;78.83;101077.13;5071055;28;20508;-66
2022/10/11 11:34:10;;;;;;;4.38;2.40;;;;;;;16.10;79.87;101073.78;5071981;28;20040;-65
2022/10/11 11:36:51;;;;;;;6.72;2.42;;;;;;;16.11;79.09;101078.16;5071395;28;20425;-66
2022/10/11 11:39:44;;;;;;;4.85;2.50;;;;;;;15.93;78.96;101070.50;5071870;28;20033;-65
2022/10/11 11:42:37;;;;;;;6.15;3.10;;;;;;;15.95;79.77;101071.97;5064107;28;20044;-65
2022/10/11 11:45:14;;;;;;;4.45;2.80;;;;;;;15.90;80.09;101069.00;5071866;28;20041;-64
2022/10/11 11:47:46;;;;;;;6.85;2.92;;;;;;;15.70;80.70;101062.53;5069631;28;20123;-62
2022/10/11 11:50:19;;;;;;;5.10;2.40;;;;;;;15.74;80.99;101058.47;5071466;28;20086;-62
2022/10/11 11:52:51;;;;;;;4.80;2.55;;;;;;;15.59;80.76;101057.63;5070291;28;20032;-63
2022/10/11 11:55:27;;;;;;;5.35;3.15;;;;;;;15.61;80.57;101069.00;5071793;28;20108;-63
2022/10/11 11:58:11;;;;;;;11.43;6.72;;;;;;;15.64;80.98;101065.97;5068123;28;20056;-64
2022/10/11 12:01:19;;;;;;;9.27;3.03;;;;;;;15.66;80.23;101055.91;5063906;28;20056;-64
2022/10/11 12:03:49;;;;;;;9.20;2.90;;;;;;;15.73;80.79;101063.03;5068690;28;20036;-64
2022/10/11 12:06:22;;;;;;;6.28;2.33;;;;;;;15.80;81.03;101059.59;5070958;28;20469;-63
2022/10/11 12:09:17;;;;;;;6.25;3.22;;;;;;;15.88;80.80;101059.47;5071550;28;20044;-64
2022/10/11 12:11:56;;;;;;;4.60;2.55;;;;;;;15.87;80.85;101055.94;5065066;28;20048;-63
2022/10/11 12:14:33;;;;;;;4.90;2.47;;;;;;;15.78;80.81;101046.34;5069359;28;20039;-65
2022/10/11 12:17:06;;;;;;;3.85;2.50;;;;;;;15.86;80.50;101043.53;5067547;28;20397;-62
2022/10/11 12:19:32;;;;;;;3.13;2.17;;;;;;;15.78;80.69;101042.81;5071026;28;20036;-64
2022/10/11 12:22:25;;;;;;;3.17;2.13;;;;;;;15.81;81.01;101037.06;5070628;28;20423;-63
2022/10/11 12:25:14;;;;;;;7.68;2.67;;;;;;;15.99;81.02;101037.50;5069192;28;20043;-64
2022/10/11 12:27:47;;;;;;;8.00;2.47;;;;;;;16.13;80.28;101033.09;5083413;22;20061;-63
2022/10/11 12:30:54;;;;;;;6.60;2.47;;;;;;;16.05;80.29;101034.06;5072007;28;20441;-63
2022/10/11 12:33:21;;;;;;;7.55;3.47;;;;;;;16.05;79.78;101030.53;5078206;28;20576;-63
2022/10/11 12:35:52;;;;;;;10.38;3.00;;;;;;;16.21;79.64;101022.22;5076928;28;20047;-62
2022/10/11 12:38:22;;;;;;;6.95;2.38;;;;;;;16.29;79.97;101019.41;5075481;28;20032;-64
2022/10/11 12:41:07;;;;;;;7.20;2.97;;;;;;;16.37;79.18;101024.66;5078385;28;20040;-62
2022/10/11 12:43:54;;;;;;;7.47;2.63;;;;;;;16.35;80.46;101018.63;5058264;28;20052;-62
2022/10/11 12:46:29;;;;;;;4.43;2.30;;;;;;;16.34;79.47;101021.53;5078258;28;20036;-63
2022/10/11 12:49:23;;;;;;;6.57;2.80;;;;;;;16.40;78.78;101024.28;5082091;28;20039;-61
2022/10/11 12:52:00;;;;;;;7.07;3.13;;;;;;;16.45;79.15;101010.25;5078583;28;20029;-61
2022/10/11 12:54:43;;;;;;;5.73;2.73;;;;;;;16.51;78.80;101015.69;5080888;28;20123;-63
2022/10/11 12:57:29;;;;;;;4.60;2.33;;;;;;;16.56;78.08;101012.41;5081584;28;20021;-62
2022/10/11 13:00:29;;;;;;;3.35;2.33;;;;;;;16.63;77.01;101009.78;5078339;28;20834;-64
2022/10/11 13:03:01;;;;;;;5.30;2.50;;;;;;;16.68;76.38;101010.84;5078208;28;20025;-62
2022/10/11 13:05:34;;;;;;;4.20;2.35;;;;;;;16.67;77.47;101006.50;5085669;28;20024;-63
2022/10/11 13:08:04;;;;;;;6.95;3.03;;;;;;;16.55;78.14;100997.28;5077911;28;20115;-61
2022/10/11 13:10:39;;;;;;;4.25;2.80;;;;;;;16.61;77.96;100999.22;5058919;28;20033;-60
2022/10/11 13:13:16;;;;;;;6.68;3.30;;;;;;;16.67;78.04;101005.66;5078111;28;20059;-61
2022/10/11 13:15:43;;;;;;;4.65;2.97;;;;;;;16.79;77.16;101002.28;5080505;28;20036;-60
2022/10/11 13:18:16;;;;;;;6.50;3.08;;;;;;;16.87;76.85;101000.47;5060946;28;20569;-61
2022/10/11 13:20:43;;;;;;;5.70;2.38;;;;;;;16.90;76.63;100998.22;5075887;28;20057;-62
2022/10/11 13:23:24;;;;;;;3.60;2.20;;;;;;;17.00;77.12;100998.69;5080072;28;20043;-61
2022/10/11 13:25:51;;;;;;;4.93;2.92;;;;;;;17.13;76.69;100997.13;5086897;28;20515;-63
2022/10/11 13:28:18;;;;;;;7.00;2.15;;;;;;;17.18;76.74;100992.00;5088374;28;20109;-63
2022/10/11 13:30:51;;;;;;;5.22;2.70;;;;;;;17.07;77.36;100988.81;5088117;28;20036;-63
2022/10/11 13:33:23;;;;;;;4.15;2.20;;;;;;;17.05;76.92;100982.81;5085642;28;20111;-62
2022/10/11 13:35:49;;;;;;;3.17;2.42;;;;;;;17.21;76.51;100988.88;5088331;28;20032;-61
2022/10/11 13:38:26;;;;;;;4.15;2.30;;;;;;;17.22;76.65;100980.63;5088574;28;20079;-64
2022/10/11 13:40:52;;;;;;;4.78;2.55;;;;;;;17.27;76.01;100980.84;5086723;28;20024;-61
2022/10/11 13:43:24;;;;;;;4.60;2.80;;;;;;;17.22;75.88;100982.50;5088330;28;20036;-62
2022/10/11 13:45:51;;;;;;;5.10;2.40;;;;;;;17.33;75.67;100981.91;5092309;28;20055;-61
2022/10/11 13:48:17;;;;;;;6.32;2.25;;;;;;;17.13;76.47;100968.34;5094182;28;20035;-61
2022/10/11 13:50:50;;;;;;;5.50;2.53;;;;;;;17.19;76.72;100983.69;5093910;28;20465;-64
2022/10/11 13:53:16;;;;;;;3.80;2.05;;;;;;;17.31;75.71;100981.28;5093738;28;20484;-65
2022/10/11 13:55:41;;;;;;;6.28;2.38;;;;;;;17.31;75.81;100971.34;5094064;28;20031;-65
2022/10/11 13:58:34;;;;;;;3.50;2.25;;;;;;;17.25;76.56;100974.84;5094227;28;20051;-63
2022/10/11 14:01:03;;;;;;;5.20;2.53;;;;;;;17.01;76.71;100972.63;5093723;28;20085;-64
2022/10/11 14:03:38;;;;;;;3.92;2.33;;;;;;;17.07;77.05;100977.22;5094134;28;20540;-64
2022/10/11 14:06:04;;;;;;;3.15;2.00;;;;;;;17.29;75.58;100975.28;5075721;28;20103;-64
2022/10/11 14:08:38;;;;;;;4.38;2.15;;;;;;;17.28;75.99;100971.75;5094001;28;20047;-62
2022/10/11 14:11:05;;;;;;;4.10;2.42;;;;;;;17.30;75.14;100974.25;5093622;28;20040;-62
2022/10/11 14:13:35;;;;;;;3.03;1.92;;;;;;;17.25;75.08;100979.38;5093947;28;20117;-64
2022/10/11 14:16:03;;;;;;;3.50;2.47;;;;;;;17.07;76.29;100974.53;5093816;28;20068;-62
2022/10/11 14:18:45;;;;;;;6.72;2.15;;;;;;;17.15;77.11;100968.13;5094006;28;20086;-64
2022/10/11 14:21:46;;;;;;;4.78;1.98;;;;;;;17.05;76.54;100976.59;5093759;28;20024;-63
2022/10/11 14:24:12;;;;;;;3.80;1.90;;;;;;;17.06;77.38;100976.38;5093777;28;20484;-62
2022/10/11 14:26:44;;;;;;;4.75;1.90;;;;;;;17.12;77.33;100971.25;5093606;28;20400;-63
2022/10/11 14:29:24;;;;;;;4.20;2.13;;;;;;;17.05;77.53;100974.72;5093914;28;20032;-63
2022/10/11 14:31:50;;;;;;;3.38;2.15;;;;;;;16.98;77.75;100976.53;5093257;28;20123;-63
2022/10/11 14:34:20;;;;;;;4.15;1.80;;;;;;;16.98;77.84;100981.09;5075424;28;20123;-63
2022/10/11 14:36:46;;;;;;;3.97;1.80;;;;;;;16.94;78.04;100982.50;5075411;28;20040;-63
2022/10/11 14:39:17;;;;;;;3.37;2.23;;;;;;;16.87;79.00;100977.09;5093492;28;20044;-63
2022/10/11 14:41:43;;;;;;;3.78;2.28;;;;;;;16.75;79.93;100979.47;5093103;28;20032;-62
2022/10/11 14:44:09;;;;;;;4.57;2.50;;;;;;;16.80;80.00;100973.53;5093368;28;20052;-62
2022/10/11 14:46:37;;;;;;;2.75;2.10;;;;;;;16.62;80.44;100975.84;5093078;28;20044;-63
2022/10/11 14:49:11;;;;;;;4.40;2.47;;;;;;;16.68;80.71;100969.66;5093778;28;20051;-62
2022/10/11 14:51:38;;;;;;;4.22;2.33;;;;;;;16.66;81.10;100966.34;5092785;28;20455;-62
2022/10/11 14:54:03;;;;;;;3.83;2.20;;;;;;;16.61;80.92;100968.78;5075051;28;20114;-63
2022/10/11 14:56:28;;;;;;;3.38;2.10;;;;;;;16.54;81.02;100972.25;5074942;28;20364;-62
2022/10/11 14:58:54;;;;;;;7.28;2.72;;;;;;;16.58;81.88;100977.28;5093017;28;20036;-63
2022/10/11 15:01:19;;;;;;;4.72;3.00;;;;;;;16.57;82.07;100967.53;5092635;28;20127;-63
2022/10/11 15:03:45;;;;;;;3.30;2.15;;;;;;;16.53;82.18;100973.28;5093051;28;20040;-62
2022/10/11 15:06:18;;;;;;;5.53;2.10;;;;;;;16.41;82.79;100966.78;5073972;28;20126;-63
2022/10/11 15:08:43;;;;;;;3.90;2.20;;;;;;;16.38;82.34;100961.81;5092862;28;20489;-63
2022/10/11 15:11:11;;;;;;;6.25;2.20;;;;;;;16.41;82.83;100965.94;5092348;28;20059;-62
2022/10/11 15:13:37;;;;;;;7.30;3.05;;;;;;;16.49;83.06;100965.78;5092718;28;20126;-63
2022/10/11 15:16:03;;;;;;;8.95;4.60;;;;;;;16.52;82.60;100966.25;5092541;28;20118;-63
2022/10/11 15:18:28;;;;;;;4.05;2.50;;;;;;;16.45;82.25;100962.69;5092695;28;20039;-63
2022/10/11 15:20:54;;;;;;;4.13;2.13;;;;;;;16.49;83.00;100961.25;5092182;28;20040;-63
2022/10/11 15:23:20;;;;;;;3.95;2.38;;;;;;;16.43;83.57;100970.13;5092730;28;20032;-63
2022/10/11 15:25:46;;;;;;;4.72;2.13;;;;;;;16.51;83.53;100959.22;5074454;28;20044;-63
2022/10/11 15:28:27;;;;;;;6.90;3.03;;;;;;;16.46;83.45;100950.06;5074005;28;20040;-63
2022/10/11 15:30:53;;;;;;;4.10;2.70;;;;;;;16.46;83.48;100956.28;5092068;28;20035;-63
2022/10/11 15:33:18;;;;;;;6.47;3.30;;;;;;;16.48;83.22;100953.38;5092378;28;20507;-63
2022/10/11 15:35:43;;;;;;;4.50;2.33;;;;;;;16.50;83.35;100951.34;5092395;28;20562;-61
2022/10/11 15:38:16;;;;;;;6.18;2.20;;;;;;;16.48;82.59;100951.53;5092198;28;20450;-61
2022/10/11 15:40:41;;;;;;;4.00;2.08;;;;;;;16.50;83.35;100952.19;5091983;28;20063;-61
2022/10/11 15:43:07;;;;;;;5.22;2.38;;;;;;;16.50;83.98;100967.50;5091991;28;20070;-62
2022/10/11 15:45:34;;;;;;;3.60;2.22;;;;;;;16.51;83.61;100953.84;5092088;28;20039;-61
2022/10/11 15:47:59;;;;;;;2.90;1.98;;;;;;;16.46;82.94;100945.53;5092071;28;20096;-61
2022/10/11 15:50:35;;;;;;;3.33;2.00;;;;;;;16.34;82.16;100957.00;5091480;28;20039;-61
2022/10/11 15:53:04;;;;;;;8.57;2.28;;;;;;;16.34;81.91;100951.63;5091812;28;20123;-62
2022/10/11 15:55:31;;;;;;;6.00;2.33;;;;;;;16.31;81.58;100949.34;5090728;28;20032;-61
2022/10/11 15:57:57;;;;;;;6.47;2.00;;;;;;;16.33;81.59;100948.09;5091487;28;20051;-61
2022/10/11 16:00:24;;;;;;;2.60;1.90;;;;;;;16.34;81.05;100941.69;5073365;28;20078;-61
2022/10/11 16:02:50;;;;;;;5.05;1.83;;;;;;;16.33;80.21;100950.78;5073752;28;20040;-61
2022/10/11 16:05:23;;;;;;;3.70;2.15;;;;;;;16.22;79.88;100951.31;5091758;28;20403;-62